»·PEaware :: N2322Y KSNA-KBUR

N2322Y :: KSNA-KBUR

FLIGHT INFORMATION

Flight Status: Arrived
Operator: Privately registered:
United States
More flights under this callsign
Pilot: Michael B. (9434)
Aircraft: CESSNA 172 SKYHAWK
(C172)
More flights by this aircraft type
Origin: KSNA John Wayne-Orange Co
United States
Destination: KBUR Bob Hope-Burbank
United States
More flights between these airports :: More routes between these airports
Route: +SLI V23 POPPR SMO125R SMO SMO311R SILEX
File this flight plan on PilotEdge
Remarks: I-3 RATING
Altitude:
(Current/Filed)
4,000ft
Speed:
(Current/Filed)
115kts
Departed: 09-Jan-18 05:13 PM
Arrived: 09-Jan-18 05:57 PM
Distance/Time
Traveled:
40nm/0:44
Distance/Time
To Go:
Arrived

Flight Plot

Page will automatically refresh every two minutes.


Map Options




Map Legend


Flown Route
Filed Route
Departure Airport
Arrival Airport
Navaid (VOR, NDB)
Fix

Horizontal Profiles

Position Reports

Time Latitude Longitude Heading Altitude Ground
Speed
09-Jan-18 17:02 33.676260 -117.870861 205 60ft 0kts
09-Jan-18 17:03 33.676260 -117.870861 205 60ft 0kts
09-Jan-18 17:04 33.676260 -117.870861 205 60ft 0kts
09-Jan-18 17:05 33.676260 -117.870861 205 60ft 0kts
09-Jan-18 17:06 33.676260 -117.870861 205 60ft 0kts
09-Jan-18 17:07 33.676260 -117.870861 205 60ft 0kts
09-Jan-18 17:08 33.676260 -117.870861 205 60ft 0kts
09-Jan-18 17:09 33.676260 -117.870861 205 60ft 0kts
09-Jan-18 17:10 33.676260 -117.870861 205 60ft 0kts
09-Jan-18 17:11 33.676260 -117.870861 205 60ft 0kts
09-Jan-18 17:12 33.676260 -117.870861 205 60ft 0kts
09-Jan-18 17:13 33.676260 -117.870861 205 60ft 0kts
09-Jan-18 17:14 33.676129 -117.870878 171 60ft 4kts
09-Jan-18 17:15 33.677998 -117.868849 25 60ft 16kts
09-Jan-18 17:16 33.681296 -117.866662 89 60ft 6kts
09-Jan-18 17:17 33.681265 -117.866471 112 60ft 0kts
09-Jan-18 17:18 33.680337 -117.865887 214 60ft 16kts
09-Jan-18 17:19 33.668559 -117.874218 235 607ft 68kts
09-Jan-18 17:20 33.657227 -117.892127 236 1681ft 66kts
09-Jan-18 17:21 33.641356 -117.915652 231 2010ft 121kts
09-Jan-18 17:22 33.621325 -117.946318 235 1993ft 110kts
09-Jan-18 17:23 33.627062 -117.980532 291 2001ft 109kts
09-Jan-18 17:24 33.639481 -118.018088 291 2002ft 126kts
09-Jan-18 17:25 33.652479 -118.057345 291 2000ft 126kts
09-Jan-18 17:26 33.666846 -118.095314 305 2000ft 126kts
09-Jan-18 17:27 33.689938 -118.127264 311 2000ft 126kts
09-Jan-18 17:28 33.715817 -118.155943 317 2001ft 127kts
09-Jan-18 17:29 33.742294 -118.183971 318 2001ft 127kts
09-Jan-18 17:30 33.769011 -118.212000 318 2000ft 127kts
09-Jan-18 17:31 33.795662 -118.239981 318 2000ft 127kts
09-Jan-18 17:32 33.821419 -118.267073 318 2160ft 125kts
09-Jan-18 17:33 33.847894 -118.295049 319 2158ft 127kts
09-Jan-18 17:34 33.875061 -118.322216 320 2158ft 127kts
09-Jan-18 17:35 33.902246 -118.349492 320 2157ft 127kts
09-Jan-18 17:36 33.929805 -118.376120 320 2158ft 127kts
09-Jan-18 17:37 33.956913 -118.403285 320 2158ft 127kts
09-Jan-18 17:38 33.984052 -118.430661 317 2157ft 127kts
09-Jan-18 17:39 34.009347 -118.459993 331 2158ft 127kts
09-Jan-18 17:40 34.034555 -118.489043 309 2158ft 127kts
09-Jan-18 17:41 34.060979 -118.517221 333 2157ft 127kts
09-Jan-18 17:42 34.092072 -118.537390 327 2158ft 127kts
09-Jan-18 17:43 34.120259 -118.562602 321 2156ft 127kts
09-Jan-18 17:44 34.147574 -118.588915 321 2387ft 115kts
09-Jan-18 17:45 34.170520 -118.611190 321 3150ft 111kts
09-Jan-18 17:46 34.199355 -118.632542 4 3155ft 130kts
09-Jan-18 17:47 34.220719 -118.600283 70 3144ft 122kts
09-Jan-18 17:48 34.229493 -118.567860 72 3164ft 99kts
09-Jan-18 17:49 34.217908 -118.544521 171 3160ft 101kts
09-Jan-18 17:50 34.189353 -118.539422 171 3159ft 107kts
09-Jan-18 17:51 34.160302 -118.539055 221 3155ft 107kts
09-Jan-18 17:52 34.160688 -118.573221 287 3158ft 107kts
09-Jan-18 17:53 34.170874 -118.607131 315 3150ft 108kts
09-Jan-18 17:54 34.198837 -118.608943 47 3153ft 107kts
09-Jan-18 17:55 34.199150 -118.577734 90 3159ft 97kts
09-Jan-18 17:56 34.198940 -118.544695 90 3154ft 96kts
09-Jan-18 17:57 34.198755 -118.512827 90 3087ft 96kts
09-Jan-18 17:58 34.198521 -118.480623 90 2640ft 93kts
09-Jan-18 17:59 34.198323 -118.449204 90 2192ft 95kts
09-Jan-18 18:00 34.198105 -118.417053 90 1764ft 84kts
09-Jan-18 18:01 34.198677 -118.394378 91 1293ft 71kts
09-Jan-18 18:02 34.197888 -118.373839 90 914ft 56kts
09-Jan-18 18:03 34.198456 -118.360377 352 781ft 8kts
09-Jan-18 18:04 34.198679 -118.360430 344 781ft 3kts
09-Jan-18 18:05 34.199353 -118.363480 295 781ft 14kts
09-Jan-18 18:06 34.200183 -118.364814 144 781ft 0kts

Navigation Log

Ident Type
1. KSNA Airport
2. SLI Navaid
3. POPPR Fix
4. SMO Navaid
5. SILEX Fix
6. KBUR Airport